sensor_id;sensor_type;location;lat;lon;timestamp;pressure;altitude;pressure_sealevel;temperature;humidity
72465;BME280;60471;52.150;4.508;2023-01-01T00:00:31;100372.44;;;14.62;64.06
72465;BME280;60471;52.150;4.508;2023-01-01T00:02:57;100378.19;;;14.56;64.10
72465;BME280;60471;52.150;4.508;2023-01-01T00:05:23;100372.44;;;14.62;64.24
72465;BME280;60471;52.150;4.508;2023-01-01T00:07:50;100398.66;;;14.54;64.68
72465;BME280;60471;52.150;4.508;2023-01-01T00:10:16;100349.59;;;14.60;64.43
72465;BME280;60471;52.150;4.508;2023-01-01T00:12:56;100359.81;;;14.66;64.09
72465;BME280;60471;52.150;4.508;2023-01-01T00:15:24;100376.88;;;14.62;64.41
72465;BME280;60471;52.150;4.508;2023-01-01T00:17:51;100380.09;;;14.54;65.08
72465;BME280;60471;52.150;4.508;2023-01-01T00:20:17;100371.28;;;14.54;64.77
72465;BME280;60471;52.150;4.508;2023-01-01T00:22:44;100381.13;;;14.64;64.62
72465;BME280;60471;52.150;4.508;2023-01-01T00:25:11;100418.75;;;14.58;64.62
72465;BME280;60471;52.150;4.508;2023-01-01T00:27:42;100375.84;;;14.52;64.80
72465;BME280;60471;52.150;4.508;2023-01-01T00:30:09;100396.03;;;14.54;64.52
72465;BME280;60471;52.150;4.508;2023-01-01T00:32:36;100364.69;;;14.59;64.59
72465;BME280;60471;52.150;4.508;2023-01-01T00:35:03;100350.44;;;14.60;64.62
72465;BME280;60471;52.150;4.508;2023-01-01T00:37:29;100356.59;;;14.61;64.54
72465;BME280;60471;52.150;4.508;2023-01-01T00:39:56;100373.31;;;14.50;65.32
72465;BME280;60471;52.150;4.508;2023-01-01T00:42:22;100353.53;;;14.54;65.17
72465;BME280;60471;52.150;4.508;2023-01-01T00:44:48;100408.97;;;14.59;64.81
72465;BME280;60471;52.150;4.508;2023-01-01T00:47:14;100359.59;;;14.56;64.90
72465;BME280;60471;52.150;4.508;2023-01-01T00:49:40;100411.88;;;14.56;64.84
72465;BME280;60471;52.150;4.508;2023-01-01T00:52:07;100367.66;;;14.67;64.55
72465;BME280;60471;52.150;4.508;2023-01-01T00:54:33;100374.00;;;14.65;64.49
72465;BME280;60471;52.150;4.508;2023-01-01T00:56:59;100358.66;;;14.81;63.84
72465;BME280;60471;52.150;4.508;2023-01-01T00:59:25;100427.03;;;14.66;63.89
72465;BME280;60471;52.150;4.508;2023-01-01T01:01:51;100390.59;;;14.68;63.57
72465;BME280;60471;52.150;4.508;2023-01-01T01:04:18;100449.13;;;14.67;63.24
72465;BME280;60471;52.150;4.508;2023-01-01T01:06:44;100402.44;;;14.75;62.88
72465;BME280;60471;52.150;4.508;2023-01-01T01:09:10;100391.09;;;14.73;62.85
72465;BME280;60471;52.150;4.508;2023-01-01T01:11:36;100408.44;;;14.66;63.02
72465;BME280;60471;52.150;4.508;2023-01-01T01:14:02;100397.34;;;14.72;62.98
72465;BME280;60471;52.150;4.508;2023-01-01T01:16:31;100415.56;;;14.66;62.87
72465;BME280;60471;52.150;4.508;2023-01-01T01:18:59;100403.22;;;14.65;62.67
72465;BME280;60471;52.150;4.508;2023-01-01T01:21:29;100415.88;;;14.61;63.26
72465;BME280;60471;52.150;4.508;2023-01-01T01:23:58;100445.69;;;14.65;62.82
72465;BME280;60471;52.150;4.508;2023-01-01T01:26:27;100400.16;;;14.58;62.77
72465;BME280;60471;52.150;4.508;2023-01-01T01:28:56;100376.66;;;14.65;62.85
72465;BME280;60471;52.150;4.508;2023-01-01T01:31:25;100441.34;;;14.64;62.59
72465;BME280;60471;52.150;4.508;2023-01-01T01:33:53;100404.28;;;14.62;63.11
72465;BME280;60471;52.150;4.508;2023-01-01T01:36:20;100387.19;;;14.66;62.93
72465;BME280;60471;52.150;4.508;2023-01-01T01:38:46;100396.13;;;14.53;63.57
72465;BME280;60471;52.150;4.508;2023-01-01T01:41:14;100386.66;;;14.61;63.46
72465;BME280;60471;52.150;4.508;2023-01-01T01:46:31;100414.59;;;14.67;63.15
72465;BME280;60471;52.150;4.508;2023-01-01T01:49:16;100411.91;;;14.79;63.06
72465;BME280;60471;52.150;4.508;2023-01-01T01:51:49;100387.59;;;14.73;63.35
72465;BME280;60471;52.150;4.508;2023-01-01T01:54:18;100411.84;;;14.68;63.59
72465;BME280;60471;52.150;4.508;2023-01-01T01:56:52;100411.72;;;14.70;63.79
72465;BME280;60471;52.150;4.508;2023-01-01T01:59:26;100448.97;;;14.81;63.58
72465;BME280;60471;52.150;4.508;2023-01-01T02:01:57;100452.72;;;14.78;63.90
72465;BME280;60471;52.150;4.508;2023-01-01T02:04:25;100461.41;;;14.81;63.67
72465;BME280;60471;52.150;4.508;2023-01-01T02:06:51;100453.44;;;14.81;63.57
72465;BME280;60471;52.150;4.508;2023-01-01T02:09:19;100442.94;;;14.79;63.94
72465;BME280;60471;52.150;4.508;2023-01-01T02:11:46;100441.00;;;14.81;63.50
72465;BME280;60471;52.150;4.508;2023-01-01T02:14:12;100459.94;;;14.76;63.69
72465;BME280;60471;52.150;4.508;2023-01-01T02:22:01;100449.94;;;14.80;63.29
72465;BME280;60471;52.150;4.508;2023-01-01T02:24:42;100499.78;;;14.76;63.03
72465;BME280;60471;52.150;4.508;2023-01-01T02:30:25;100440.47;;;14.76;62.81
72465;BME280;60471;52.150;4.508;2023-01-01T02:33:11;100442.19;;;14.77;63.16
72465;BME280;60471;52.150;4.508;2023-01-01T02:36:00;100483.19;;;14.73;62.60
72465;BME280;60471;52.150;4.508;2023-01-01T02:38:33;100465.16;;;14.78;62.55
72465;BME280;60471;52.150;4.508;2023-01-01T02:41:05;100449.25;;;14.65;63.20
72465;BME280;60471;52.150;4.508;2023-01-01T02:43:37;100466.63;;;14.69;62.63
72465;BME280;60471;52.150;4.508;2023-01-01T02:46:05;100449.13;;;14.67;62.67
72465;BME280;60471;52.150;4.508;2023-01-01T02:48:51;100473.22;;;14.76;62.52
72465;BME280;60471;52.150;4.508;2023-01-01T02:57:51;100532.50;;;14.64;62.33
72465;BME280;60471;52.150;4.508;2023-01-01T03:01:06;100462.41;;;14.67;62.62
72465;BME280;60471;52.150;4.508;2023-01-01T03:03:44;100455.59;;;14.63;62.76
72465;BME280;60471;52.150;4.508;2023-01-01T03:06:49;100486.41;;;14.65;62.77
72465;BME280;60471;52.150;4.508;2023-01-01T03:10:02;100530.69;;;14.65;63.44
72465;BME280;60471;52.150;4.508;2023-01-01T03:12:30;100487.81;;;14.45;64.59
72465;BME280;60471;52.150;4.508;2023-01-01T03:16:12;100507.63;;;14.40;64.76
72465;BME280;60471;52.150;4.508;2023-01-01T03:21:11;100512.81;;;14.41;65.26
72465;BME280;60471;52.150;4.508;2023-01-01T03:23:45;100577.97;;;14.47;65.07
72465;BME280;60471;52.150;4.508;2023-01-01T03:26:15;100536.56;;;14.44;65.26
72465;BME280;60471;52.150;4.508;2023-01-01T03:28:50;100605.59;;;14.30;65.39
72465;BME280;60471;52.150;4.508;2023-01-01T03:31:24;100580.00;;;14.29;65.88
72465;BME280;60471;52.150;4.508;2023-01-01T03:34:22;100543.81;;;14.28;65.76
72465;BME280;60471;52.150;4.508;2023-01-01T03:36:57;100529.56;;;14.16;66.09
72465;BME280;60471;52.150;4.508;2023-01-01T03:39:34;100630.63;;;14.13;66.89
72465;BME280;60471;52.150;4.508;2023-01-01T03:45:16;100573.81;;;14.03;67.63
72465;BME280;60471;52.150;4.508;2023-01-01T03:47:44;100561.28;;;14.05;67.19
72465;BME280;60471;52.150;4.508;2023-01-01T03:50:12;100547.38;;;14.02;67.51
72465;BME280;60471;52.150;4.508;2023-01-01T03:55:46;100569.06;;;13.81;67.14
72465;BME280;60471;52.150;4.508;2023-01-01T03:58:23;100587.16;;;13.75;67.67
72465;BME280;60471;52.150;4.508;2023-01-01T04:01:21;100646.41;;;13.61;68.12
72465;BME280;60471;52.150;4.508;2023-01-01T04:03:52;100605.41;;;13.52;67.91
72465;BME280;60471;52.150;4.508;2023-01-01T04:06:19;100735.78;;;13.59;68.44
72465;BME280;60471;52.150;4.508;2023-01-01T04:08:47;100638.31;;;13.36;69.61
72465;BME280;60471;52.150;4.508;2023-01-01T04:11:22;100710.13;;;13.31;69.68
72465;BME280;60471;52.150;4.508;2023-01-01T04:14:11;100621.81;;;13.30;70.08
72465;BME280;60471;52.150;4.508;2023-01-01T04:16:37;100583.97;;;13.28;70.29
72465;BME280;60471;52.150;4.508;2023-01-01T04:19:03;100628.81;;;13.17;70.33
72465;BME280;60471;52.150;4.508;2023-01-01T04:21:32;100591.72;;;13.17;69.94
72465;BME280;60471;52.150;4.508;2023-01-01T04:23:58;100605.44;;;13.24;69.56
72465;BME280;60471;52.150;4.508;2023-01-01T04:26:24;100616.41;;;13.32;66.86
72465;BME280;60471;52.150;4.508;2023-01-01T04:28:51;100724.22;;;13.31;66.67
72465;BME280;60471;52.150;4.508;2023-01-01T04:31:17;100646.97;;;13.23;66.98
72465;BME280;60471;52.150;4.508;2023-01-01T04:33:43;100630.91;;;13.26;66.37
72465;BME280;60471;52.150;4.508;2023-01-01T04:36:09;100686.25;;;13.17;66.31
72465;BME280;60471;52.150;4.508;2023-01-01T04:38:36;100718.47;;;13.25;66.33
72465;BME280;60471;52.150;4.508;2023-01-01T04:41:03;100663.09;;;13.20;66.55
72465;BME280;60471;52.150;4.508;2023-01-01T04:43:30;100637.81;;;13.15;67.12
72465;BME280;60471;52.150;4.508;2023-01-01T04:46:01;100681.28;;;12.96;68.99
72465;BME280;60471;52.150;4.508;2023-01-01T04:48:31;100708.81;;;12.94;70.31
72465;BME280;60471;52.150;4.508;2023-01-01T04:51:02;100700.41;;;13.01;70.68
72465;BME280;60471;52.150;4.508;2023-01-01T04:53:31;100667.75;;;12.87;71.63
72465;BME280;60471;52.150;4.508;2023-01-01T04:56:05;100682.91;;;12.99;71.21
72465;BME280;60471;52.150;4.508;2023-01-01T04:58:37;100708.13;;;12.90;71.55
72465;BME280;60471;52.150;4.508;2023-01-01T05:01:06;100704.28;;;12.96;70.98
72465;BME280;60471;52.150;4.508;2023-01-01T05:03:33;100661.34;;;13.05;70.44
72465;BME280;60471;52.150;4.508;2023-01-01T05:06:04;100668.72;;;13.00;69.93
72465;BME280;60471;52.150;4.508;2023-01-01T05:08:35;100646.50;;;13.02;69.43
72465;BME280;60471;52.150;4.508;2023-01-01T05:11:04;100729.91;;;12.95;69.81
72465;BME280;60471;52.150;4.508;2023-01-01T05:13:43;100674.97;;;12.99;69.84
72465;BME280;60471;52.150;4.508;2023-01-01T05:16:13;100680.25;;;12.99;69.73
72465;BME280;60471;52.150;4.508;2023-01-01T05:18:44;100753.34;;;12.87;69.22
72465;BME280;60471;52.150;4.508;2023-01-01T05:21:14;100765.44;;;12.91;68.89
72465;BME280;60471;52.150;4.508;2023-01-01T05:23:42;100667.19;;;12.96;68.90
72465;BME280;60471;52.150;4.508;2023-01-01T05:26:18;100700.97;;;12.92;68.85
72465;BME280;60471;52.150;4.508;2023-01-01T05:28:46;100663.22;;;12.89;68.91
72465;BME280;60471;52.150;4.508;2023-01-01T05:31:16;100707.03;;;12.94;68.80
72465;BME280;60471;52.150;4.508;2023-01-01T05:33:44;100714.78;;;12.97;68.53
72465;BME280;60471;52.150;4.508;2023-01-01T05:36:15;100680.81;;;12.90;68.86
72465;BME280;60471;52.150;4.508;2023-01-01T05:38:42;100695.47;;;12.95;68.46
72465;BME280;60471;52.150;4.508;2023-01-01T05:41:11;100735.75;;;12.86;68.65
72465;BME280;60471;52.150;4.508;2023-01-01T05:43:39;100753.25;;;12.89;68.94
72465;BME280;60471;52.150;4.508;2023-01-01T05:46:11;100751.97;;;12.96;68.87
72465;BME280;60471;52.150;4.508;2023-01-01T05:48:40;100738.97;;;12.91;68.98
72465;BME280;60471;52.150;4.508;2023-01-01T05:51:12;100726.00;;;12.87;69.47
72465;BME280;60471;52.150;4.508;2023-01-01T05:53:43;100773.41;;;12.91;69.39
72465;BME280;60471;52.150;4.508;2023-01-01T05:56:10;100768.16;;;12.75;69.93
72465;BME280;60471;52.150;4.508;2023-01-01T05:58:37;100758.41;;;12.76;69.91
72465;BME280;60471;52.150;4.508;2023-01-01T06:01:25;100763.81;;;12.74;70.05
72465;BME280;60471;52.150;4.508;2023-01-01T06:03:53;100772.88;;;12.70;70.47
72465;BME280;60471;52.150;4.508;2023-01-01T06:06:28;100796.19;;;12.64;71.02
72465;BME280;60471;52.150;4.508;2023-01-01T06:09:00;100753.56;;;12.68;70.91
72465;BME280;60471;52.150;4.508;2023-01-01T06:11:27;100754.06;;;12.75;70.55
72465;BME280;60471;52.150;4.508;2023-01-01T06:13:56;100813.50;;;12.69;71.09
72465;BME280;60471;52.150;4.508;2023-01-01T06:16:24;100809.94;;;12.70;71.05
72465;BME280;60471;52.150;4.508;2023-01-01T06:18:51;100738.91;;;12.63;71.34
72465;BME280;60471;52.150;4.508;2023-01-01T06:21:20;100812.16;;;12.62;71.39
72465;BME280;60471;52.150;4.508;2023-01-01T06:23:48;100845.47;;;12.51;71.84
72465;BME280;60471;52.150;4.508;2023-01-01T06:26:17;100803.97;;;12.51;71.99
72465;BME280;60471;52.150;4.508;2023-01-01T06:28:46;100760.88;;;12.49;72.13
72465;BME280;60471;52.150;4.508;2023-01-01T06:31:14;100772.88;;;12.55;72.14
72465;BME280;60471;52.150;4.508;2023-01-01T06:33:43;100797.84;;;12.51;71.59
72465;BME280;60471;52.150;4.508;2023-01-01T06:36:12;100794.16;;;12.53;71.50
72465;BME280;60471;52.150;4.508;2023-01-01T06:38:42;100857.94;;;12.48;71.34
72465;BME280;60471;52.150;4.508;2023-01-01T06:41:13;100779.72;;;12.43;71.74
72465;BME280;60471;52.150;4.508;2023-01-01T06:43:41;100804.66;;;12.55;71.25
72465;BME280;60471;52.150;4.508;2023-01-01T06:46:13;100825.31;;;12.48;71.47
72465;BME280;60471;52.150;4.508;2023-01-01T06:48:39;100846.22;;;12.53;71.29
72465;BME280;60471;52.150;4.508;2023-01-01T06:51:31;100819.78;;;12.53;70.88
72465;BME280;60471;52.150;4.508;2023-01-01T06:54:06;100836.66;;;12.66;70.31
72465;BME280;60471;52.150;4.508;2023-01-01T06:56:33;100854.69;;;12.59;70.49
72465;BME280;60471;52.150;4.508;2023-01-01T06:59:01;100860.59;;;12.48;70.65
72465;BME280;60471;52.150;4.508;2023-01-01T07:01:29;100881.50;;;12.53;70.25
72465;BME280;60471;52.150;4.508;2023-01-01T07:03:59;100830.78;;;12.61;69.96
72465;BME280;60471;52.150;4.508;2023-01-01T07:06:28;100915.63;;;12.58;70.13
72465;BME280;60471;52.150;4.508;2023-01-01T07:08:56;100901.06;;;12.51;70.19
72465;BME280;60471;52.150;4.508;2023-01-01T07:11:23;100882.09;;;12.58;69.52
72465;BME280;60471;52.150;4.508;2023-01-01T07:13:50;100846.06;;;12.56;69.93
72465;BME280;60471;52.150;4.508;2023-01-01T07:16:16;100879.88;;;12.51;69.96
72465;BME280;60471;52.150;4.508;2023-01-01T07:18:43;100941.69;;;12.50;69.85
72465;BME280;60471;52.150;4.508;2023-01-01T07:21:30;100906.34;;;12.51;69.44
72465;BME280;60471;52.150;4.508;2023-01-01T07:24:00;100900.34;;;12.31;69.95
72465;BME280;60471;52.150;4.508;2023-01-01T07:26:29;100921.09;;;12.39;69.50
72465;BME280;60471;52.150;4.508;2023-01-01T07:28:56;100918.59;;;12.36;69.45
72465;BME280;60471;52.150;4.508;2023-01-01T07:31:23;100915.63;;;12.42;69.29
72465;BME280;60471;52.150;4.508;2023-01-01T07:33:49;100924.16;;;12.47;68.65
72465;BME280;60471;52.150;4.508;2023-01-01T07:36:16;100957.34;;;12.37;68.87
72465;BME280;60471;52.150;4.508;2023-01-01T07:38:42;100907.78;;;12.40;68.91
72465;BME280;60471;52.150;4.508;2023-01-01T07:41:09;100954.94;;;12.50;68.15
72465;BME280;60471;52.150;4.508;2023-01-01T07:43:35;100938.69;;;12.40;67.96
72465;BME280;60471;52.150;4.508;2023-01-01T07:46:02;100928.19;;;12.54;67.35
72465;BME280;60471;52.150;4.508;2023-01-01T07:48:29;100964.56;;;12.51;67.51
72465;BME280;60471;52.150;4.508;2023-01-01T07:50:55;100971.00;;;12.62;67.18
72465;BME280;60471;52.150;4.508;2023-01-01T07:53:22;100991.81;;;12.53;66.98
72465;BME280;60471;52.150;4.508;2023-01-01T07:55:48;101002.84;;;12.61;66.78
72465;BME280;60471;52.150;4.508;2023-01-01T07:58:14;100971.81;;;12.47;67.29
72465;BME280;60471;52.150;4.508;2023-01-01T08:00:44;101014.94;;;12.49;67.23
72465;BME280;60471;52.150;4.508;2023-01-01T08:03:12;101020.38;;;12.46;67.30
72465;BME280;60471;52.150;4.508;2023-01-01T08:05:39;101016.88;;;12.45;67.20
72465;BME280;60471;52.150;4.508;2023-01-01T08:08:05;100998.22;;;12.48;67.47
72465;BME280;60471;52.150;4.508;2023-01-01T08:10:32;100973.59;;;12.46;67.69
72465;BME280;60471;52.150;4.508;2023-01-01T08:13:02;101004.03;;;12.55;67.22
72465;BME280;60471;52.150;4.508;2023-01-01T08:15:30;100986.69;;;12.50;67.44
72465;BME280;60471;52.150;4.508;2023-01-01T08:17:58;100970.81;;;12.50;67.21
72465;BME280;60471;52.150;4.508;2023-01-01T08:20:28;100975.25;;;12.49;67.53
72465;BME280;60471;52.150;4.508;2023-01-01T08:22:58;100943.72;;;12.44;67.48
72465;BME280;60471;52.150;4.508;2023-01-01T08:25:24;100969.41;;;12.42;67.30
72465;BME280;60471;52.150;4.508;2023-01-01T08:27:50;101006.66;;;12.55;66.70
72465;BME280;60471;52.150;4.508;2023-01-01T08:30:17;100999.22;;;12.46;66.96
72465;BME280;60471;52.150;4.508;2023-01-01T08:32:43;101000.69;;;12.52;66.43
72465;BME280;60471;52.150;4.508;2023-01-01T08:35:09;100979.59;;;12.50;66.63
72465;BME280;60471;52.150;4.508;2023-01-01T08:37:35;101001.94;;;12.44;66.90
72465;BME280;60471;52.150;4.508;2023-01-01T08:40:02;101013.06;;;12.51;66.63
72465;BME280;60471;52.150;4.508;2023-01-01T08:42:28;101018.03;;;12.57;66.67
72465;BME280;60471;52.150;4.508;2023-01-01T08:44:55;101026.38;;;12.50;66.96
72465;BME280;60471;52.150;4.508;2023-01-01T08:47:25;101044.47;;;12.41;66.87
72465;BME280;60471;52.150;4.508;2023-01-01T08:49:52;101018.19;;;12.54;66.66
72465;BME280;60471;52.150;4.508;2023-01-01T08:52:19;101056.78;;;12.58;66.40
72465;BME280;60471;52.150;4.508;2023-01-01T08:54:45;101036.97;;;12.50;67.05
72465;BME280;60471;52.150;4.508;2023-01-01T08:57:12;100992.56;;;12.55;67.01
72465;BME280;60471;52.150;4.508;2023-01-01T08:59:39;101032.47;;;12.67;66.75
72465;BME280;60471;52.150;4.508;2023-01-01T09:02:05;101027.44;;;12.63;66.74
72465;BME280;60471;52.150;4.508;2023-01-01T09:04:32;101011.56;;;12.63;66.99
72465;BME280;60471;52.150;4.508;2023-01-01T09:06:59;101033.97;;;12.73;66.64
72465;BME280;60471;52.150;4.508;2023-01-01T09:09:25;101048.38;;;12.67;66.82
72465;BME280;60471;52.150;4.508;2023-01-01T09:11:54;101058.94;;;12.67;66.78
72465;BME280;60471;52.150;4.508;2023-01-01T09:14:24;101037.78;;;12.67;66.87
72465;BME280;60471;52.150;4.508;2023-01-01T09:16:50;101012.78;;;12.73;66.79
72465;BME280;60471;52.150;4.508;2023-01-01T09:19:16;101020.50;;;12.93;66.01
72465;BME280;60471;52.150;4.508;2023-01-01T09:21:42;101052.59;;;13.20;64.84
72465;BME280;60471;52.150;4.508;2023-01-01T09:24:09;101050.00;;;13.03;65.22
72465;BME280;60471;52.150;4.508;2023-01-01T09:26:35;101028.84;;;13.01;65.48
72465;BME280;60471;52.150;4.508;2023-01-01T09:29:01;101045.75;;;13.32;64.83
72465;BME280;60471;52.150;4.508;2023-01-01T09:31:27;101047.59;;;13.14;65.07
72465;BME280;60471;52.150;4.508;2023-01-01T09:33:54;101062.88;;;13.09;65.38
72465;BME280;60471;52.150;4.508;2023-01-01T09:38:49;101050.63;;;12.75;66.33
72465;BME280;60471;52.150;4.508;2023-01-01T09:49:43;101053.84;;;13.60;64.01
72465;BME280;60471;52.150;4.508;2023-01-01T09:52:13;101062.69;;;13.29;65.32
72465;BME280;60471;52.150;4.508;2023-01-01T09:55:03;101088.66;;;13.23;65.89
72465;BME280;60471;52.150;4.508;2023-01-01T09:57:38;101091.81;;;13.29;65.62
72465;BME280;60471;52.150;4.508;2023-01-01T10:00:13;101091.31;;;13.54;64.71
72465;BME280;60471;52.150;4.508;2023-01-01T10:08:42;101105.41;;;13.86;63.29
72465;BME280;60471;52.150;4.508;2023-01-01T10:13:56;101108.38;;;13.17;64.92
72465;BME280;60471;52.150;4.508;2023-01-01T10:16:35;101106.63;;;13.33;64.70
72465;BME280;60471;52.150;4.508;2023-01-01T10:19:49;101073.88;;;13.34;64.99
72465;BME280;60471;52.150;4.508;2023-01-01T10:24:58;101075.19;;;13.89;62.95
72465;BME280;60471;52.150;4.508;2023-01-01T10:27:50;101066.94;;;13.79;63.25
72465;BME280;60471;52.150;4.508;2023-01-01T10:30:24;101081.06;;;13.48;64.63
72465;BME280;60471;52.150;4.508;2023-01-01T10:32:53;101068.13;;;13.74;64.16
72465;BME280;60471;52.150;4.508;2023-01-01T10:35:34;101070.84;;;14.48;61.87
72465;BME280;60471;52.150;4.508;2023-01-01T10:38:05;101071.53;;;15.64;58.88
72465;BME280;60471;52.150;4.508;2023-01-01T10:40:32;101091.94;;;15.90;57.95
72465;BME280;60471;52.150;4.508;2023-01-01T10:43:00;101087.34;;;15.80;58.37
72465;BME280;60471;52.150;4.508;2023-01-01T10:45:37;101089.63;;;15.72;58.92
72465;BME280;60471;52.150;4.508;2023-01-01T10:48:21;101109.09;;;15.17;60.65
72465;BME280;60471;52.150;4.508;2023-01-01T10:56:39;101124.00;;;13.71;65.86
72465;BME280;60471;52.150;4.508;2023-01-01T10:59:44;101152.28;;;13.54;66.86
72465;BME280;60471;52.150;4.508;2023-01-01T11:02:26;101124.50;;;13.61;66.95
72465;BME280;60471;52.150;4.508;2023-01-01T11:07:41;101121.03;;;14.07;65.50
72465;BME280;60471;52.150;4.508;2023-01-01T11:10:20;101127.00;;;14.56;63.77
72465;BME280;60471;52.150;4.508;2023-01-01T11:12:50;101092.75;;;14.52;63.31
72465;BME280;60471;52.150;4.508;2023-01-01T11:15:40;101155.53;;;15.11;61.18
72465;BME280;60471;52.150;4.508;2023-01-01T11:18:13;101126.00;;;13.97;64.55
72465;BME280;60471;52.150;4.508;2023-01-01T11:20:41;101120.78;;;13.96;65.51
72465;BME280;60471;52.150;4.508;2023-01-01T11:23:26;101129.88;;;13.76;65.53
72465;BME280;60471;52.150;4.508;2023-01-01T11:26:20;101153.31;;;13.36;67.18
72465;BME280;60471;52.150;4.508;2023-01-01T11:29:19;101160.91;;;13.26;67.71
72465;BME280;60471;52.150;4.508;2023-01-01T11:31:50;101138.47;;;13.16;68.43
72465;BME280;60471;52.150;4.508;2023-01-01T11:37:15;101145.78;;;13.44;67.96
72465;BME280;60471;52.150;4.508;2023-01-01T11:39:52;101185.59;;;13.10;69.15
72465;BME280;60471;52.150;4.508;2023-01-01T11:42:24;101159.88;;;13.12;69.34
72465;BME280;60471;52.150;4.508;2023-01-01T11:44:56;101122.66;;;13.15;69.42
72465;BME280;60471;52.150;4.508;2023-01-01T11:52:45;101176.91;;;13.07;69.86
72465;BME280;60471;52.150;4.508;2023-01-01T11:58:16;101134.97;;;13.16;69.87
72465;BME280;60471;52.150;4.508;2023-01-01T12:00:54;101167.47;;;13.19;69.97
72465;BME280;60471;52.150;4.508;2023-01-01T12:03:27;101162.53;;;13.12;70.44
72465;BME280;60471;52.150;4.508;2023-01-01T12:09:56;101161.38;;;13.00;70.99
72465;BME280;60471;52.150;4.508;2023-01-01T12:12:33;101163.72;;;13.06;70.68
72465;BME280;60471;52.150;4.508;2023-01-01T12:18:09;101125.41;;;12.96;71.20
72465;BME280;60471;52.150;4.508;2023-01-01T12:21:00;101143.50;;;12.88;71.12
72465;BME280;60471;52.150;4.508;2023-01-01T12:23:33;101152.94;;;12.93;70.95
72465;BME280;60471;52.150;4.508;2023-01-01T12:26:12;101134.53;;;12.90;70.71
72465;BME280;60471;52.150;4.508;2023-01-01T12:32:41;101142.53;;;13.06;69.90
72465;BME280;60471;52.150;4.508;2023-01-01T12:41:48;101135.88;;;13.48;67.68
72465;BME280;60471;52.150;4.508;2023-01-01T12:51:34;101138.69;;;13.12;67.28
72465;BME280;60471;52.150;4.508;2023-01-01T12:59:43;101151.31;;;13.24;66.60
72465;BME280;60471;52.150;4.508;2023-01-01T13:02:19;101141.72;;;13.21;66.63
72465;BME280;60471;52.150;4.508;2023-01-01T13:04:55;101170.81;;;13.05;66.73
72465;BME280;60471;52.150;4.508;2023-01-01T13:07:30;101143.00;;;13.14;66.21
72465;BME280;60471;52.150;4.508;2023-01-01T13:10:27;101133.06;;;13.18;66.11
72465;BME280;60471;52.150;4.508;2023-01-01T13:12:59;101141.72;;;13.21;66.26
72465;BME280;60471;52.150;4.508;2023-01-01T13:20:41;101139.94;;;13.22;65.77
72465;BME280;60471;52.150;4.508;2023-01-01T13:34:35;101113.56;;;13.36;65.69
72465;BME280;60471;52.150;4.508;2023-01-01T13:40:55;101118.41;;;13.28;66.58
72465;BME280;60471;52.150;4.508;2023-01-01T13:45:24;101124.16;;;13.36;67.03
72465;BME280;60471;52.150;4.508;2023-01-01T13:51:26;101136.53;;;13.20;68.10
72465;BME280;60471;52.150;4.508;2023-01-01T14:00:28;101136.88;;;13.12;69.12
72465;BME280;60471;52.150;4.508;2023-01-01T14:03:10;101141.31;;;12.96;70.15
72465;BME280;60471;52.150;4.508;2023-01-01T14:05:47;101144.03;;;12.94;70.54
72465;BME280;60471;52.150;4.508;2023-01-01T14:08:32;101125.41;;;12.96;70.92
72465;BME280;60471;52.150;4.508;2023-01-01T14:11:02;101118.25;;;12.98;70.72
72465;BME280;60471;52.150;4.508;2023-01-01T14:13:42;101117.97;;;12.87;71.21
72465;BME280;60471;52.150;4.508;2023-01-01T14:16:09;101108.13;;;12.89;71.83
72465;BME280;60471;52.150;4.508;2023-01-01T14:18:41;101118.81;;;12.87;71.55
72465;BME280;60471;52.150;4.508;2023-01-01T14:21:13;101106.34;;;12.89;71.67
72465;BME280;60471;52.150;4.508;2023-01-01T14:26:24;101112.19;;;12.96;71.48
72465;BME280;60471;52.150;4.508;2023-01-01T14:28:54;101116.72;;;12.94;71.85
72465;BME280;60471;52.150;4.508;2023-01-01T14:31:29;101105.41;;;12.90;71.94
72465;BME280;60471;52.150;4.508;2023-01-01T14:33:59;101108.97;;;12.89;72.31
72465;BME280;60471;52.150;4.508;2023-01-01T14:36:29;101109.59;;;12.94;72.25
72465;BME280;60471;52.150;4.508;2023-01-01T14:38:58;101112.56;;;12.88;72.37
72465;BME280;60471;52.150;4.508;2023-01-01T14:44:15;101118.97;;;12.84;72.58
72465;BME280;60471;52.150;4.508;2023-01-01T14:46:46;101121.44;;;13.04;71.87
72465;BME280;60471;52.150;4.508;2023-01-01T14:49:18;101106.50;;;12.86;72.71
72465;BME280;60471;52.150;4.508;2023-01-01T14:52:10;101107.09;;;12.91;72.13
72465;BME280;60471;52.150;4.508;2023-01-01T14:54:47;101102.59;;;12.93;72.37
72465;BME280;60471;52.150;4.508;2023-01-01T14:57:17;101094.75;;;12.92;72.28
72465;BME280;60471;52.150;4.508;2023-01-01T14:59:50;101111.22;;;12.81;72.63
72465;BME280;60471;52.150;4.508;2023-01-01T15:02:23;101103.00;;;12.86;72.29
72465;BME280;60471;52.150;4.508;2023-01-01T15:04:51;101101.41;;;12.99;71.72
72465;BME280;60471;52.150;4.508;2023-01-01T15:07:20;101100.31;;;13.03;71.60
72465;BME280;60471;52.150;4.508;2023-01-01T15:09:52;101104.44;;;12.91;72.46
72465;BME280;60471;52.150;4.508;2023-01-01T15:12:22;101109.31;;;12.83;72.16
72465;BME280;60471;52.150;4.508;2023-01-01T15:14:50;101099.69;;;12.98;71.84
72465;BME280;60471;52.150;4.508;2023-01-01T15:17:24;101113.63;;;13.01;71.91
72465;BME280;60471;52.150;4.508;2023-01-01T15:20:20;101118.59;;;12.92;72.12
72465;BME280;60471;52.150;4.508;2023-01-01T15:22:49;101127.03;;;12.98;71.83
72465;BME280;60471;52.150;4.508;2023-01-01T15:25:17;101113.34;;;12.90;72.27
72465;BME280;60471;52.150;4.508;2023-01-01T15:27:52;101124.66;;;12.94;71.94
72465;BME280;60471;52.150;4.508;2023-01-01T15:30:26;101126.22;;;12.81;72.34